Time;durP1;ratioP1;P1;durP2;ratioP2;P2;SDS_P1;SDS_P2;PMS_P1;PMS_P2;Temp;Humidity;BMP_temperature;BMP_pressure;BME280_temperature;BME280_humidity;BME280_pressure;Samples;Min_cycle;Max_cycle;Signal;HPM_P1;HPM_P2
2022/11/27 00:00:41;;;;;;;18.20;5.37;;;;;;;;;;6309224;22;20172;-71
2022/11/27 00:03:07;;;;;;;17.83;4.80;;;;;;;;;;6281660;22;20160;-69
2022/11/27 00:05:33;;;;;;;13.93;5.43;;;;;;;;;;6281513;22;20164;-71
2022/11/27 00:07:59;;;;;;;17.10;5.00;;;;;;;;;;6281686;22;20156;-69
2022/11/27 00:10:25;;;;;;;12.50;4.97;;;;;;;;;;6308714;22;20191;-70
2022/11/27 00:12:51;;;;;;;13.30;5.53;;;;;;;;;;6281849;22;20637;-72
2022/11/27 00:15:17;;;;;;;14.13;5.20;;;;;;;;;;6281987;22;20148;-72
2022/11/27 00:17:43;;;;;;;13.97;5.10;;;;;;;;;;6309480;22;20145;-69
2022/11/27 00:20:10;;;;;;;10.93;4.43;;;;;;;;;;6281955;22;20191;-72
2022/11/27 00:22:36;;;;;;;14.97;6.17;;;;;;;;;;6281931;22;20160;-69
2022/11/27 00:25:02;;;;;;;23.80;9.57;;;;;;;;;;6308738;22;20149;-70
2022/11/27 00:27:28;;;;;;;18.80;6.23;;;;;;;;;;6281577;22;20167;-68
2022/11/27 00:29:54;;;;;;;14.70;5.57;;;;;;;;;;6308805;22;20168;-70
2022/11/27 00:32:20;;;;;;;22.07;8.13;;;;;;;;;;6309219;22;20176;-71
2022/11/27 00:34:45;;;;;;;18.23;6.90;;;;;;;;;;6309214;22;20172;-71
2022/11/27 00:37:13;;;;;;;19.30;7.23;;;;;;;;;;6309158;22;20422;-70
2022/11/27 00:39:39;;;;;;;13.60;5.97;;;;;;;;;;6308985;22;20144;-70
2022/11/27 00:42:05;;;;;;;13.60;4.73;;;;;;;;;;6281551;22;20156;-70
2022/11/27 00:44:31;;;;;;;12.67;4.73;;;;;;;;;;6308953;22;20223;-70
2022/11/27 00:46:57;;;;;;;13.40;4.47;;;;;;;;;;6309016;22;20149;-70
2022/11/27 00:49:23;;;;;;;17.27;5.03;;;;;;;;;;6309230;22;20148;-69
2022/11/27 00:51:49;;;;;;;12.87;4.73;;;;;;;;;;6309259;22;20210;-69
2022/11/27 00:54:15;;;;;;;12.73;4.67;;;;;;;;;;6308652;22;20149;-70
2022/11/27 00:56:41;;;;;;;13.33;4.00;;;;;;;;;;6308808;22;20217;-71
2022/11/27 00:59:07;;;;;;;16.93;5.00;;;;;;;;;;6308761;22;20145;-70
2022/11/27 01:01:34;;;;;;;11.63;4.60;;;;;;;;;;6281306;22;20177;-69
2022/11/27 01:04:01;;;;;;;7.37;3.73;;;;;;;;;;6281252;22;20166;-70
2022/11/27 01:06:28;;;;;;;14.23;4.13;;;;;;;;;;6308744;22;20155;-70
2022/11/27 01:08:54;;;;;;;15.70;4.90;;;;;;;;;;6281470;22;20159;-69
2022/11/27 01:11:23;;;;;;;8.63;3.73;;;;;;;;;;6308611;22;20188;-70
2022/11/27 01:13:49;;;;;;;8.97;3.97;;;;;;;;;;6281525;22;20297;-70
2022/11/27 01:16:17;;;;;;;8.10;4.30;;;;;;;;;;6309519;22;20148;-70
2022/11/27 01:18:44;;;;;;;11.27;4.00;;;;;;;;;;6308913;22;20197;-70
2022/11/27 01:21:10;;;;;;;11.70;3.87;;;;;;;;;;6308940;22;20175;-69
2022/11/27 01:23:36;;;;;;;8.03;3.63;;;;;;;;;;6309094;22;20179;-70
2022/11/27 01:26:03;;;;;;;14.60;3.97;;;;;;;;;;6281395;22;20168;-70
2022/11/27 01:28:29;;;;;;;12.93;4.27;;;;;;;;;;6308800;22;20159;-70
2022/11/27 01:30:55;;;;;;;11.63;4.10;;;;;;;;;;6308573;22;20578;-69
2022/11/27 01:33:21;;;;;;;15.07;4.67;;;;;;;;;;6281233;22;20259;-69
2022/11/27 01:35:57;;;;;;;16.47;4.33;;;;;;;;;;6308109;22;20149;-69
2022/11/27 01:38:24;;;;;;;8.70;3.73;;;;;;;;;;6280998;22;20491;-69
2022/11/27 01:40:55;;;;;;;10.47;3.87;;;;;;;;;;6281411;22;20493;-69
2022/11/27 01:43:37;;;;;;;11.97;4.63;;;;;;;;;;6308730;22;20137;-69
2022/11/27 01:46:04;;;;;;;14.23;4.50;;;;;;;;;;6308634;22;20174;-69
2022/11/27 01:48:30;;;;;;;12.07;4.07;;;;;;;;;;6308392;22;20149;-70
2022/11/27 01:50:56;;;;;;;7.80;3.67;;;;;;;;;;6280959;22;20264;-70
2022/11/27 01:53:22;;;;;;;12.43;4.07;;;;;;;;;;6308217;22;20204;-69
2022/11/27 01:55:50;;;;;;;11.97;3.70;;;;;;;;;;6280842;22;20152;-70
2022/11/27 01:58:19;;;;;;;12.57;3.90;;;;;;;;;;6281129;22;20183;-70
2022/11/27 02:00:45;;;;;;;14.43;4.53;;;;;;;;;;6308119;22;20164;-69
2022/11/27 02:03:11;;;;;;;13.97;4.30;;;;;;;;;;6281570;22;20160;-69
2022/11/27 02:05:37;;;;;;;9.33;4.27;;;;;;;;;;6280945;22;20235;-70
2022/11/27 02:08:06;;;;;;;10.20;4.30;;;;;;;;;;6281140;22;20164;-69
2022/11/27 02:10:51;;;;;;;7.70;3.70;;;;;;;;;;6308259;22;20741;-71
2022/11/27 02:13:28;;;;;;;9.63;4.50;;;;;;;;;;6308407;22;20173;-70
2022/11/27 02:15:54;;;;;;;10.70;4.57;;;;;;;;;;6308315;22;20164;-70
2022/11/27 02:18:40;;;;;;;13.93;4.77;;;;;;;;;;6280899;22;20159;-69
2022/11/27 02:21:10;;;;;;;11.47;4.60;;;;;;;;;;6280795;22;20172;-71
2022/11/27 02:23:55;;;;;;;9.67;4.50;;;;;;;;;;6281039;22;20152;-69
2022/11/27 02:26:39;;;;;;;15.10;4.43;;;;;;;;;;6307992;22;20286;-69
2022/11/27 02:29:07;;;;;;;8.83;4.40;;;;;;;;;;6308331;22;20153;-70
2022/11/27 02:31:48;;;;;;;15.77;5.77;;;;;;;;;;6308120;22;20183;-70
2022/11/27 02:34:14;;;;;;;21.27;8.43;;;;;;;;;;6308362;22;20137;-70
2022/11/27 02:36:43;;;;;;;14.63;5.83;;;;;;;;;;6281226;22;20191;-70
2022/11/27 02:39:10;;;;;;;14.47;5.10;;;;;;;;;;6280668;22;20231;-69
2022/11/27 02:41:38;;;;;;;16.63;5.80;;;;;;;;;;6308118;22;20194;-69
2022/11/27 02:44:05;;;;;;;16.23;5.37;;;;;;;;;;6280922;22;20594;-69
2022/11/27 02:46:32;;;;;;;13.30;6.20;;;;;;;;;;6307935;22;20500;-70
2022/11/27 02:49:03;;;;;;;14.17;6.83;;;;;;;;;;6280647;22;20156;-69
2022/11/27 02:51:34;;;;;;;14.00;8.37;;;;;;;;;;6308319;22;20168;-69
2022/11/27 02:54:01;;;;;;;20.23;9.57;;;;;;;;;;6280902;22;20152;-69
2022/11/27 02:56:28;;;;;;;21.90;7.53;;;;;;;;;;6308725;22;20541;-70
2022/11/27 02:58:56;;;;;;;11.77;5.40;;;;;;;;;;6308607;22;20174;-69
2022/11/27 03:01:23;;;;;;;9.70;5.33;;;;;;;;;;6280797;22;20176;-69
2022/11/27 03:03:52;;;;;;;13.97;5.03;;;;;;;;;;6281844;22;20157;-70
2022/11/27 03:06:20;;;;;;;17.10;5.90;;;;;;;;;;6308840;22;20604;-69
2022/11/27 03:08:50;;;;;;;15.43;5.67;;;;;;;;;;6281161;22;20188;-69
2022/11/27 03:11:16;;;;;;;9.83;5.13;;;;;;;;;;6308596;22;20272;-69
2022/11/27 03:13:44;;;;;;;14.80;5.47;;;;;;;;;;6282904;22;20259;-69
2022/11/27 03:16:10;;;;;;;13.40;5.43;;;;;;;;;;6311140;22;20594;-69
2022/11/27 03:18:39;;;;;;;14.83;5.43;;;;;;;;;;6310448;22;20156;-70
2022/11/27 03:21:09;;;;;;;17.40;6.30;;;;;;;;;;6312307;22;20179;-70
2022/11/27 03:23:35;;;;;;;14.73;6.43;;;;;;;;;;6312433;22;20152;-71
2022/11/27 03:26:01;;;;;;;13.87;6.00;;;;;;;;;;6309245;22;20163;-69
2022/11/27 03:28:28;;;;;;;14.87;6.27;;;;;;;;;;6307838;22;20155;-70
2022/11/27 03:30:54;;;;;;;11.27;5.40;;;;;;;;;;6307321;22;20173;-69
2022/11/27 03:33:20;;;;;;;16.90;6.77;;;;;;;;;;6307950;22;20577;-69
2022/11/27 03:35:46;;;;;;;17.13;7.30;;;;;;;;;;6307796;22;20149;-69
2022/11/27 03:38:12;;;;;;;12.63;6.80;;;;;;;;;;6307760;22;20239;-70
2022/11/27 03:40:45;;;;;;;14.00;6.77;;;;;;;;;;6307889;22;20474;-70
2022/11/27 03:43:19;;;;;;;11.53;6.57;;;;;;;;;;6281190;22;20426;-70
2022/11/27 03:45:52;;;;;;;13.73;6.53;;;;;;;;;;6280038;22;20163;-70
2022/11/27 03:48:37;;;;;;;15.40;7.40;;;;;;;;;;6307904;22;20141;-70
2022/11/27 03:51:19;;;;;;;15.67;7.97;;;;;;;;;;6280038;22;20489;-70
2022/11/27 03:53:53;;;;;;;14.97;7.33;;;;;;;;;;6310501;22;20222;-70
2022/11/27 03:56:31;;;;;;;16.40;7.73;;;;;;;;;;6315763;22;20562;-69
2022/11/27 03:59:19;;;;;;;14.73;8.00;;;;;;;;;;6289013;22;20156;-70
2022/11/27 04:01:45;;;;;;;13.13;8.00;;;;;;;;;;6290928;22;20172;-69
2022/11/27 04:04:10;;;;;;;16.17;7.50;;;;;;;;;;6311988;22;20474;-70
2022/11/27 04:06:36;;;;;;;14.93;8.37;;;;;;;;;;6309499;22;20239;-70
2022/11/27 04:09:03;;;;;;;14.63;8.73;;;;;;;;;;6281890;22;20474;-69
2022/11/27 04:11:29;;;;;;;19.00;8.33;;;;;;;;;;6281468;22;20195;-70
2022/11/27 04:13:55;;;;;;;18.87;8.40;;;;;;;;;;6281885;22;20184;-69
2022/11/27 04:16:21;;;;;;;18.53;9.23;;;;;;;;;;6309339;22;20155;-69
2022/11/27 04:18:46;;;;;;;18.10;9.83;;;;;;;;;;6281661;22;20505;-69
2022/11/27 04:21:12;;;;;;;15.17;8.77;;;;;;;;;;6309154;22;20243;-70
2022/11/27 04:23:39;;;;;;;18.50;8.70;;;;;;;;;;6309186;22;20149;-70
2022/11/27 04:26:05;;;;;;;17.97;9.53;;;;;;;;;;6309738;22;20643;-69
2022/11/27 04:28:31;;;;;;;18.60;8.73;;;;;;;;;;6309531;22;20494;-70
2022/11/27 04:30:58;;;;;;;16.87;9.70;;;;;;;;;;6308958;22;20176;-70
2022/11/27 04:33:24;;;;;;;17.70;9.17;;;;;;;;;;6282306;22;20188;-70
2022/11/27 04:35:50;;;;;;;18.67;9.10;;;;;;;;;;6309164;22;20590;-70
2022/11/27 04:38:16;;;;;;;17.10;8.70;;;;;;;;;;6309096;22;20156;-69
2022/11/27 04:40:42;;;;;;;15.80;7.90;;;;;;;;;;6308977;22;20196;-69
2022/11/27 04:43:08;;;;;;;13.93;8.50;;;;;;;;;;6281331;22;20195;-69
2022/11/27 04:45:35;;;;;;;13.97;9.57;;;;;;;;;;6309395;22;20524;-70
2022/11/27 04:48:01;;;;;;;14.83;8.83;;;;;;;;;;6308765;22;20156;-69
2022/11/27 04:50:27;;;;;;;17.03;8.57;;;;;;;;;;6308699;22;20491;-69
2022/11/27 04:52:53;;;;;;;16.87;9.00;;;;;;;;;;6308607;22;20530;-69
2022/11/27 04:55:19;;;;;;;14.57;8.90;;;;;;;;;;6281085;22;20163;-70
2022/11/27 04:57:45;;;;;;;14.47;9.27;;;;;;;;;;6309089;22;20145;-70
2022/11/27 05:00:11;;;;;;;14.90;9.30;;;;;;;;;;6308578;22;20179;-69
2022/11/27 05:02:38;;;;;;;16.03;9.10;;;;;;;;;;6308625;22;20160;-69
2022/11/27 05:05:04;;;;;;;16.37;9.43;;;;;;;;;;6308662;22;20156;-70
2022/11/27 05:07:30;;;;;;;15.67;8.67;;;;;;;;;;6308579;22;20149;-70
2022/11/27 05:09:57;;;;;;;14.40;8.97;;;;;;;;;;6307944;22;20191;-70
2022/11/27 05:12:22;;;;;;;20.23;9.07;;;;;;;;;;6308586;22;20197;-70
2022/11/27 05:14:49;;;;;;;15.93;9.03;;;;;;;;;;6308890;22;20149;-70
2022/11/27 05:17:14;;;;;;;16.27;9.47;;;;;;;;;;6308530;22;20152;-68
2022/11/27 05:19:40;;;;;;;14.37;9.27;;;;;;;;;;6309132;22;20149;-69
2022/11/27 05:22:06;;;;;;;15.90;9.07;;;;;;;;;;6307105;22;20167;-67
2022/11/27 05:24:32;;;;;;;14.63;8.70;;;;;;;;;;6308675;22;20152;-69
2022/11/27 05:26:58;;;;;;;12.90;8.17;;;;;;;;;;6307348;22;20163;-69
2022/11/27 05:29:25;;;;;;;17.67;9.63;;;;;;;;;;6307039;22;20309;-69
2022/11/27 05:31:51;;;;;;;15.83;9.17;;;;;;;;;;6307139;22;20549;-67
2022/11/27 05:34:17;;;;;;;14.47;8.97;;;;;;;;;;6308840;22;20148;-69
2022/11/27 05:36:43;;;;;;;18.30;9.97;;;;;;;;;;6309935;22;20144;-70
2022/11/27 05:39:09;;;;;;;13.93;8.27;;;;;;;;;;6309594;22;20208;-67
2022/11/27 05:41:36;;;;;;;15.20;8.33;;;;;;;;;;6307039;22;20298;-69
2022/11/27 05:44:02;;;;;;;17.47;9.70;;;;;;;;;;6308674;22;20270;-69
2022/11/27 05:46:28;;;;;;;16.97;9.53;;;;;;;;;;6308780;22;20152;-70
2022/11/27 05:48:54;;;;;;;16.60;9.00;;;;;;;;;;6308422;22;20646;-69
2022/11/27 05:51:20;;;;;;;15.27;8.90;;;;;;;;;;6306766;22;20156;-69
2022/11/27 05:53:46;;;;;;;14.80;9.43;;;;;;;;;;6306805;22;20234;-68
2022/11/27 05:56:13;;;;;;;15.10;9.10;;;;;;;;;;6308701;22;20609;-69
2022/11/27 05:58:40;;;;;;;15.30;8.17;;;;;;;;;;6306718;22;20180;-70
2022/11/27 06:01:06;;;;;;;15.90;8.63;;;;;;;;;;6308517;22;20610;-69
2022/11/27 06:03:32;;;;;;;20.03;9.00;;;;;;;;;;6308796;22;20153;-67
2022/11/27 06:05:58;;;;;;;12.93;8.07;;;;;;;;;;6306626;22;20170;-69
2022/11/27 06:08:24;;;;;;;13.33;8.00;;;;;;;;;;6308054;22;20211;-68
2022/11/27 06:10:50;;;;;;;15.53;8.87;;;;;;;;;;6308438;22;20198;-68
2022/11/27 06:13:16;;;;;;;13.70;8.77;;;;;;;;;;6308241;22;20247;-69
2022/11/27 06:15:42;;;;;;;12.33;8.07;;;;;;;;;;6308522;22;20149;-67
2022/11/27 06:18:09;;;;;;;13.23;7.97;;;;;;;;;;6306387;22;20625;-70
2022/11/27 06:20:35;;;;;;;12.67;8.10;;;;;;;;;;6308113;22;20232;-70
2022/11/27 06:23:01;;;;;;;14.97;7.70;;;;;;;;;;6306342;22;20192;-70
2022/11/27 06:25:27;;;;;;;12.33;7.73;;;;;;;;;;6307201;22;20603;-70
2022/11/27 06:27:53;;;;;;;11.93;7.53;;;;;;;;;;6308173;22;20168;-70
2022/11/27 06:30:19;;;;;;;12.93;7.93;;;;;;;;;;6308586;22;20689;-71
2022/11/27 06:32:45;;;;;;;14.20;7.77;;;;;;;;;;6308296;22;20637;-70
2022/11/27 06:35:11;;;;;;;14.20;8.23;;;;;;;;;;6308483;22;20144;-70
2022/11/27 06:37:37;;;;;;;14.23;7.60;;;;;;;;;;6306938;22;20180;-70
2022/11/27 06:40:03;;;;;;;14.90;7.73;;;;;;;;;;6308770;22;20632;-70
2022/11/27 06:42:29;;;;;;;14.13;7.67;;;;;;;;;;6306333;22;20156;-70
2022/11/27 06:44:56;;;;;;;10.77;6.97;;;;;;;;;;6307943;22;20175;-70
2022/11/27 06:47:22;;;;;;;13.53;7.67;;;;;;;;;;6307932;22;20583;-69
2022/11/27 06:49:48;;;;;;;10.73;6.63;;;;;;;;;;6306497;22;20168;-70
2022/11/27 06:52:14;;;;;;;10.50;6.67;;;;;;;;;;6308022;22;20230;-69
2022/11/27 06:54:39;;;;;;;12.50;7.57;;;;;;;;;;6306166;22;20157;-69
2022/11/27 06:57:05;;;;;;;15.17;7.10;;;;;;;;;;6308727;22;20152;-69
2022/11/27 06:59:31;;;;;;;11.80;7.10;;;;;;;;;;6308018;22;20168;-69
2022/11/27 07:01:57;;;;;;;17.83;10.07;;;;;;;;;;6308696;22;20186;-69
2022/11/27 07:04:23;;;;;;;12.27;8.57;;;;;;;;;;6306288;22;20163;-69
2022/11/27 07:06:49;;;;;;;17.37;9.07;;;;;;;;;;6307987;22;20149;-69
2022/11/27 07:09:15;;;;;;;11.97;6.87;;;;;;;;;;6306350;22;20173;-69
2022/11/27 07:11:41;;;;;;;15.67;6.93;;;;;;;;;;6307705;22;20181;-69
2022/11/27 07:14:07;;;;;;;12.63;7.60;;;;;;;;;;6307917;22;20191;-69
2022/11/27 07:16:35;;;;;;;10.50;6.57;;;;;;;;;;6306425;22;20175;-69
2022/11/27 07:19:02;;;;;;;13.70;7.20;;;;;;;;;;6306551;22;20192;-69
2022/11/27 07:21:28;;;;;;;13.73;7.33;;;;;;;;;;6307886;22;20195;-69
2022/11/27 07:23:57;;;;;;;12.37;7.60;;;;;;;;;;6306331;22;20160;-69
2022/11/27 07:26:24;;;;;;;11.83;7.30;;;;;;;;;;6308503;22;20152;-68
2022/11/27 07:28:51;;;;;;;15.93;7.33;;;;;;;;;;6306158;22;20191;-67
2022/11/27 07:31:27;;;;;;;14.03;7.20;;;;;;;;;;6310054;22;20232;-68
2022/11/27 07:33:53;;;;;;;11.17;7.63;;;;;;;;;;6309479;22;20170;-69
2022/11/27 07:36:23;;;;;;;10.30;6.70;;;;;;;;;;6308242;22;20152;-67
2022/11/27 07:38:49;;;;;;;9.97;6.80;;;;;;;;;;6308594;22;20176;-68
2022/11/27 07:41:16;;;;;;;13.33;7.03;;;;;;;;;;6332256;22;20159;-69
2022/11/27 07:43:42;;;;;;;16.57;7.77;;;;;;;;;;6332853;22;20156;-69
2022/11/27 07:46:11;;;;;;;14.77;7.93;;;;;;;;;;6334100;22;20144;-69
2022/11/27 07:48:37;;;;;;;9.97;6.93;;;;;;;;;;6334046;22;20168;-69
2022/11/27 07:51:07;;;;;;;16.97;8.20;;;;;;;;;;6333032;22;20152;-69
2022/11/27 07:53:37;;;;;;;16.83;8.47;;;;;;;;;;6334530;22;20235;-68
2022/11/27 07:56:03;;;;;;;11.40;7.07;;;;;;;;;;6333793;22;20148;-69
2022/11/27 07:58:29;;;;;;;9.60;6.23;;;;;;;;;;6333831;22;20169;-70
2022/11/27 08:00:55;;;;;;;10.40;6.57;;;;;;;;;;6334088;22;20223;-69
2022/11/27 08:03:21;;;;;;;10.27;6.53;;;;;;;;;;6333850;22;20174;-69
2022/11/27 08:05:47;;;;;;;11.10;6.10;;;;;;;;;;6332942;22;20161;-70
2022/11/27 08:08:13;;;;;;;15.97;8.70;;;;;;;;;;6333229;22;20203;-69
2022/11/27 08:10:40;;;;;;;16.27;9.27;;;;;;;;;;6323293;22;20161;-69
2022/11/27 08:13:06;;;;;;;11.70;6.50;;;;;;;;;;6308907;22;20176;-70
2022/11/27 08:15:32;;;;;;;10.97;6.43;;;;;;;;;;6310784;22;20144;-69
2022/11/27 08:17:58;;;;;;;8.37;5.60;;;;;;;;;;6309903;22;20194;-67
2022/11/27 08:20:24;;;;;;;12.37;6.20;;;;;;;;;;6310397;22;20581;-68
2022/11/27 08:22:50;;;;;;;8.73;5.90;;;;;;;;;;6310567;22;20168;-70
2022/11/27 08:25:17;;;;;;;9.13;5.60;;;;;;;;;;6315211;22;20164;-69
2022/11/27 08:27:43;;;;;;;11.70;5.77;;;;;;;;;;6309335;22;20232;-70
2022/11/27 08:30:09;;;;;;;8.63;6.00;;;;;;;;;;6310003;22;20222;-67
2022/11/27 08:32:38;;;;;;;8.60;5.30;;;;;;;;;;6309755;22;20177;-70
2022/11/27 08:35:04;;;;;;;9.17;5.60;;;;;;;;;;6308232;22;20618;-70
2022/11/27 08:37:30;;;;;;;11.90;6.03;;;;;;;;;;6311622;22;20175;-70
2022/11/27 08:39:56;;;;;;;10.13;5.07;;;;;;;;;;6313474;22;20149;-68
2022/11/27 08:42:22;;;;;;;9.70;5.50;;;;;;;;;;6309129;22;20236;-70
2022/11/27 08:44:48;;;;;;;9.20;4.83;;;;;;;;;;6311501;22;20149;-67
2022/11/27 08:47:15;;;;;;;10.13;5.40;;;;;;;;;;6310873;22;20278;-69
2022/11/27 08:49:42;;;;;;;6.77;5.03;;;;;;;;;;6321235;22;20149;-71
2022/11/27 08:52:08;;;;;;;9.00;5.07;;;;;;;;;;6321046;22;20187;-69
2022/11/27 08:54:34;;;;;;;9.50;5.10;;;;;;;;;;6322507;22;20164;-69
2022/11/27 08:57:00;;;;;;;9.73;5.17;;;;;;;;;;6318027;22;20148;-70
2022/11/27 08:59:26;;;;;;;8.53;4.97;;;;;;;;;;6307406;22;20176;-70
2022/11/27 09:01:52;;;;;;;10.83;4.67;;;;;;;;;;6308727;22;20224;-69
2022/11/27 09:04:18;;;;;;;7.47;4.70;;;;;;;;;;6309025;22;20206;-70
2022/11/27 09:06:44;;;;;;;7.40;4.80;;;;;;;;;;6308470;22;20207;-70
2022/11/27 09:09:10;;;;;;;8.03;5.13;;;;;;;;;;6307279;22;20180;-70
2022/11/27 09:11:37;;;;;;;7.50;5.20;;;;;;;;;;6308870;22;20151;-69
2022/11/27 09:14:03;;;;;;;5.63;3.70;;;;;;;;;;6308963;22;20172;-68
2022/11/27 09:16:29;;;;;;;7.03;4.67;;;;;;;;;;6307228;22;20152;-69
2022/11/27 09:18:56;;;;;;;8.83;4.67;;;;;;;;;;6306920;22;20230;-70
2022/11/27 09:21:22;;;;;;;11.73;6.73;;;;;;;;;;6308616;22;20496;-70
2022/11/27 09:23:52;;;;;;;6.47;4.60;;;;;;;;;;6307130;22;20243;-70
2022/11/27 09:26:18;;;;;;;10.37;4.90;;;;;;;;;;6309091;22;20153;-70
2022/11/27 09:28:44;;;;;;;7.10;5.03;;;;;;;;;;6308642;22;20617;-70
2022/11/27 09:31:11;;;;;;;8.77;5.17;;;;;;;;;;6307118;22;20164;-70
2022/11/27 09:33:37;;;;;;;8.67;5.13;;;;;;;;;;6308745;22;20225;-69
2022/11/27 09:36:04;;;;;;;36.90;5.57;;;;;;;;;;6306886;22;20156;-70
2022/11/27 09:38:31;;;;;;;9.80;4.90;;;;;;;;;;6306781;22;20215;-69
2022/11/27 09:40:59;;;;;;;9.23;4.33;;;;;;;;;;6307124;22;20163;-69
2022/11/27 09:43:28;;;;;;;8.57;4.53;;;;;;;;;;6306856;22;20244;-68
2022/11/27 09:45:57;;;;;;;7.43;5.10;;;;;;;;;;6307081;22;20163;-70
2022/11/27 09:48:40;;;;;;;15.93;8.63;;;;;;;;;;6308722;22;20176;-70
2022/11/27 09:51:09;;;;;;;8.70;4.87;;;;;;;;;;6308594;22;20202;-70
2022/11/27 09:53:42;;;;;;;9.23;4.50;;;;;;;;;;6308682;22;20618;-69
2022/11/27 09:56:11;;;;;;;7.23;5.40;;;;;;;;;;6308266;22;20266;-69
2022/11/27 09:58:41;;;;;;;8.70;5.73;;;;;;;;;;6306483;22;20555;-69
2022/11/27 10:01:10;;;;;;;7.87;4.67;;;;;;;;;;6308491;22;20149;-70
2022/11/27 10:03:37;;;;;;;8.43;4.93;;;;;;;;;;6308817;22;20156;-70
2022/11/27 10:06:19;;;;;;;11.73;4.80;;;;;;;;;;6308383;22;20586;-70
2022/11/27 10:09:00;;;;;;;9.50;5.07;;;;;;;;;;6306997;22;20181;-70
2022/11/27 10:11:36;;;;;;;8.03;5.60;;;;;;;;;;6306974;22;20145;-70
2022/11/27 10:14:32;;;;;;;6.93;5.63;;;;;;;;;;6306851;22;20564;-70
2022/11/27 10:17:14;;;;;;;21.43;11.50;;;;;;;;;;6289320;22;20583;-70
2022/11/27 10:19:49;;;;;;;9.57;6.47;;;;;;;;;;6306690;22;20156;-69
2022/11/27 10:22:26;;;;;;;11.13;6.23;;;;;;;;;;6307008;22;20474;-69
2022/11/27 10:25:01;;;;;;;16.03;9.70;;;;;;;;;;6306561;22;20215;-69
2022/11/27 10:27:40;;;;;;;10.23;7.10;;;;;;;;;;6307920;22;20481;-68
2022/11/27 10:30:14;;;;;;;8.80;6.10;;;;;;;;;;6306672;22;20152;-69
2022/11/27 10:32:40;;;;;;;11.60;7.37;;;;;;;;;;6306556;22;20623;-69
2022/11/27 10:35:14;;;;;;;9.53;5.50;;;;;;;;;;6308089;22;20601;-70
2022/11/27 10:37:55;;;;;;;7.20;5.37;;;;;;;;;;6306504;22;20179;-70
2022/11/27 10:40:24;;;;;;;8.13;5.33;;;;;;;;;;6308394;22;20176;-70
2022/11/27 10:42:59;;;;;;;7.13;5.23;;;;;;;;;;6308293;22;20157;-69
2022/11/27 10:45:31;;;;;;;7.90;5.27;;;;;;;;;;6306599;22;20162;-70
2022/11/27 10:47:57;;;;;;;8.93;5.80;;;;;;;;;;6308736;22;20176;-67
2022/11/27 10:50:23;;;;;;;8.57;5.40;;;;;;;;;;6307850;22;20156;-70
2022/11/27 10:53:07;;;;;;;7.37;5.00;;;;;;;;;;6307985;22;20176;-69
2022/11/27 10:55:48;;;;;;;8.33;5.03;;;;;;;;;;6306551;22;20155;-70
2022/11/27 10:58:25;;;;;;;13.63;5.47;;;;;;;;;;6308235;22;20509;-69
2022/11/27 11:01:05;;;;;;;8.60;5.17;;;;;;;;;;6308180;22;20144;-68
2022/11/27 11:03:31;;;;;;;11.43;5.70;;;;;;;;;;6308046;22;20155;-69
2022/11/27 11:05:59;;;;;;;7.87;5.77;;;;;;;;;;6306365;22;20168;-69
2022/11/27 11:08:27;;;;;;;8.57;5.43;;;;;;;;;;6308916;22;20226;-69
2022/11/27 11:10:57;;;;;;;7.83;5.43;;;;;;;;;;6308598;22;20505;-68
2022/11/27 11:13:27;;;;;;;9.97;5.53;;;;;;;;;;6308256;22;20176;-68
2022/11/27 11:15:55;;;;;;;9.47;5.67;;;;;;;;;;6310090;22;20136;-68
2022/11/27 11:18:45;;;;;;;8.60;4.93;;;;;;;;;;6308262;22;20195;-70
2022/11/27 11:21:29;;;;;;;7.83;4.37;;;;;;;;;;6267391;22;20240;-73
2022/11/27 11:24:01;;;;;;;8.07;5.17;;;;;;;;;;6247030;22;20181;-73
2022/11/27 11:26:29;;;;;;;8.33;5.40;;;;;;;;;;6248907;22;20150;-73
2022/11/27 11:28:57;;;;;;;10.77;5.07;;;;;;;;;;6248474;22;20157;-73
2022/11/27 11:31:28;;;;;;;8.30;4.90;;;;;;;;;;6248199;22;20169;-73
2022/11/27 11:33:58;;;;;;;8.50;4.70;;;;;;;;;;6246551;23;20180;-72
2022/11/27 11:36:24;;;;;;;7.10;5.90;;;;;;;;;;6246655;23;20158;-73
2022/11/27 11:38:51;;;;;;;8.00;5.73;;;;;;;;;;6246447;23;20204;-71
2022/11/27 11:41:17;;;;;;;9.27;6.33;;;;;;;;;;6248200;22;20253;-72
2022/11/27 11:43:53;;;;;;;11.63;6.00;;;;;;;;;;6246424;23;20188;-72
2022/11/27 11:46:21;;;;;;;10.23;6.87;;;;;;;;;;6246287;23;20207;-72
2022/11/27 11:49:05;;;;;;;9.07;6.33;;;;;;;;;;6247889;22;20176;-73
2022/11/27 11:51:42;;;;;;;9.80;5.93;;;;;;;;;;6247566;22;20176;-72
2022/11/27 11:54:14;;;;;;;10.37;7.73;;;;;;;;;;6247885;22;20162;-72
2022/11/27 11:56:43;;;;;;;9.13;5.03;;;;;;;;;;6246017;23;20146;-73
2022/11/27 11:59:15;;;;;;;8.57;5.80;;;;;;;;;;6246086;23;20161;-72
2022/11/27 12:02:00;;;;;;;8.60;5.40;;;;;;;;;;6248035;23;20146;-71
2022/11/27 12:04:26;;;;;;;7.60;4.87;;;;;;;;;;6246062;23;20142;-72
2022/11/27 12:07:10;;;;;;;9.67;5.53;;;;;;;;;;6246124;23;20208;-72
2022/11/27 12:09:39;;;;;;;8.43;5.27;;;;;;;;;;6246123;22;20246;-72
2022/11/27 12:12:17;;;;;;;7.63;5.30;;;;;;;;;;6247562;23;20150;-71
2022/11/27 12:14:48;;;;;;;8.30;5.17;;;;;;;;;;6246013;23;20157;-73
2022/11/27 12:17:14;;;;;;;6.33;5.03;;;;;;;;;;6246240;23;20226;-72
2022/11/27 12:19:58;;;;;;;7.33;4.77;;;;;;;;;;6252284;22;20222;-72
2022/11/27 12:22:37;;;;;;;7.13;5.17;;;;;;;;;;6279007;22;20137;-73
2022/11/27 12:25:15;;;;;;;8.37;5.03;;;;;;;;;;6278286;22;20157;-72
2022/11/27 12:27:53;;;;;;;9.03;4.70;;;;;;;;;;6278538;22;20146;-72
2022/11/27 12:30:20;;;;;;;6.70;4.27;;;;;;;;;;6278001;22;20173;-72
2022/11/27 12:32:49;;;;;;;7.33;4.13;;;;;;;;;;6278975;22;20251;-71
2022/11/27 12:35:20;;;;;;;7.60;5.57;;;;;;;;;;6251280;22;20157;-72
2022/11/27 12:37:50;;;;;;;6.23;4.73;;;;;;;;;;6251311;22;20156;-71
2022/11/27 12:40:22;;;;;;;6.20;4.60;;;;;;;;;;6278426;22;20165;-72
2022/11/27 12:42:48;;;;;;;8.67;4.60;;;;;;;;;;6279874;22;20138;-71
2022/11/27 12:45:22;;;;;;;4.60;4.07;;;;;;;;;;6253411;22;20157;-71
2022/11/27 12:48:06;;;;;;;6.40;4.27;;;;;;;;;;6280338;22;20214;-72
2022/11/27 12:50:38;;;;;;;6.13;3.90;;;;;;;;;;6280302;22;20177;-72
2022/11/27 12:53:27;;;;;;;9.97;4.30;;;;;;;;;;6279952;22;20249;-72
2022/11/27 12:55:59;;;;;;;9.87;4.90;;;;;;;;;;6281186;22;20220;-72
2022/11/27 12:58:30;;;;;;;6.17;4.73;;;;;;;;;;6252394;22;20156;-73
2022/11/27 13:01:07;;;;;;;13.97;6.33;;;;;;;;;;6252316;22;20177;-73
2022/11/27 13:03:59;;;;;;;14.37;5.83;;;;;;;;;;6252026;22;20491;-72
2022/11/27 13:06:28;;;;;;;9.10;5.57;;;;;;;;;;6251041;22;20145;-73
2022/11/27 13:09:01;;;;;;;8.93;4.67;;;;;;;;;;6278087;22;20156;-72
2022/11/27 13:11:28;;;;;;;16.00;7.93;;;;;;;;;;6250835;22;20177;-71
2022/11/27 13:13:58;;;;;;;14.87;7.27;;;;;;;;;;6278401;22;20173;-72
2022/11/27 13:16:37;;;;;;;14.17;6.63;;;;;;;;;;6251488;22;20149;-72
2022/11/27 13:19:16;;;;;;;18.83;8.00;;;;;;;;;;6278436;22;20247;-71
2022/11/27 13:21:42;;;;;;;14.73;6.40;;;;;;;;;;6251264;22;20179;-72
2022/11/27 13:24:11;;;;;;;8.70;5.70;;;;;;;;;;6251386;22;20164;-72
2022/11/27 13:26:44;;;;;;;10.40;5.60;;;;;;;;;;6278902;22;20149;-72
2022/11/27 13:29:17;;;;;;;9.00;5.77;;;;;;;;;;6278486;22;20212;-72
2022/11/27 13:31:44;;;;;;;10.50;5.57;;;;;;;;;;6278127;22;20181;-71
2022/11/27 13:34:17;;;;;;;11.40;6.83;;;;;;;;;;6250657;22;20250;-71
2022/11/27 13:36:44;;;;;;;8.20;6.00;;;;;;;;;;6278182;22;20145;-73
2022/11/27 13:39:23;;;;;;;10.93;7.80;;;;;;;;;;6282542;22;20146;-72
2022/11/27 13:41:58;;;;;;;12.27;8.47;;;;;;;;;;6261147;22;20615;-72
2022/11/27 13:44:26;;;;;;;11.17;6.27;;;;;;;;;;6278000;22;20137;-72
2022/11/27 13:46:54;;;;;;;8.90;5.70;;;;;;;;;;6251010;22;20603;-72
2022/11/27 13:49:38;;;;;;;8.83;5.87;;;;;;;;;;6250618;22;20157;-73
2022/11/27 13:52:11;;;;;;;8.57;5.03;;;;;;;;;;6250951;22;20145;-73
2022/11/27 13:54:38;;;;;;;10.10;6.67;;;;;;;;;;6278135;22;20483;-72
2022/11/27 13:57:25;;;;;;;9.90;6.20;;;;;;;;;;6277909;22;20590;-72
2022/11/27 14:00:00;;;;;;;11.50;8.43;;;;;;;;;;6277868;22;20172;-72
2022/11/27 14:02:39;;;;;;;9.40;4.83;;;;;;;;;;6277687;22;20152;-71
2022/11/27 14:05:05;;;;;;;8.27;5.90;;;;;;;;;;6277579;22;20532;-72
2022/11/27 14:07:44;;;;;;;8.50;6.10;;;;;;;;;;6277748;22;20653;-72
2022/11/27 14:10:15;;;;;;;10.90;5.10;;;;;;;;;;6277223;22;20195;-73
2022/11/27 14:12:42;;;;;;;7.63;5.30;;;;;;;;;;6277688;22;20169;-71
2022/11/27 14:15:22;;;;;;;8.63;5.30;;;;;;;;;;6277830;22;20149;-71
2022/11/27 14:17:49;;;;;;;6.23;4.87;;;;;;;;;;6250493;22;20199;-73
2022/11/27 14:20:15;;;;;;;7.27;5.37;;;;;;;;;;6277278;22;20181;-74
2022/11/27 14:22:41;;;;;;;8.17;5.17;;;;;;;;;;6277459;22;20210;-71
2022/11/27 14:25:21;;;;;;;7.50;5.20;;;;;;;;;;6277893;22;20198;-72
2022/11/27 14:27:47;;;;;;;8.23;4.80;;;;;;;;;;6250386;22;20153;-73
2022/11/27 14:30:22;;;;;;;6.60;4.70;;;;;;;;;;6277159;22;20196;-72
2022/11/27 14:32:48;;;;;;;6.80;5.10;;;;;;;;;;6251310;22;20241;-72
2022/11/27 14:35:23;;;;;;;7.80;5.03;;;;;;;;;;6277469;22;20590;-72
2022/11/27 14:37:49;;;;;;;6.10;4.70;;;;;;;;;;6277659;22;20151;-74
2022/11/27 14:40:19;;;;;;;23.40;11.70;;;;;;;;;;6250241;22;20264;-72
2022/11/27 14:42:45;;;;;;;14.97;7.73;;;;;;;;;;6275296;22;20158;-73
2022/11/27 14:45:14;;;;;;;8.43;5.40;;;;;;;;;;6250448;22;20543;-71
2022/11/27 14:47:41;;;;;;;6.63;4.87;;;;;;;;;;6278326;22;20149;-72